sensor_id;sensor_type;location;lat;lon;timestamp;temperature;humidity
32322;DHT22;61553;48.994;8.940;2023-10-19T00:00:46;11.10;99.90
32322;DHT22;61553;48.994;8.940;2023-10-19T00:03:15;11.20;99.90
32322;DHT22;61553;48.994;8.940;2023-10-19T00:05:41;11.20;99.90
32322;DHT22;61553;48.994;8.940;2023-10-19T00:08:08;11.20;99.90
32322;DHT22;61553;48.994;8.940;2023-10-19T00:10:51;11.20;99.90
32322;DHT22;61553;48.994;8.940;2023-10-19T00:13:36;11.20;99.90
32322;DHT22;61553;48.994;8.940;2023-10-19T00:16:06;11.20;99.90
32322;DHT22;61553;48.994;8.940;2023-10-19T00:18:42;11.30;99.90
32322;DHT22;61553;48.994;8.940;2023-10-19T00:21:08;11.30;99.90
32322;DHT22;61553;48.994;8.940;2023-10-19T00:23:45;11.30;99.90
32322;DHT22;61553;48.994;8.940;2023-10-19T00:26:15;11.30;99.90
32322;DHT22;61553;48.994;8.940;2023-10-19T00:28:45;11.30;99.90
32322;DHT22;61553;48.994;8.940;2023-10-19T00:31:12;11.30;99.90
32322;DHT22;61553;48.994;8.940;2023-10-19T00:33:39;11.30;99.90
32322;DHT22;61553;48.994;8.940;2023-10-19T00:36:07;11.30;99.90
32322;DHT22;61553;48.994;8.940;2023-10-19T00:38:34;11.30;99.90
32322;DHT22;61553;48.994;8.940;2023-10-19T00:41:00;11.20;99.90
32322;DHT22;61553;48.994;8.940;2023-10-19T00:43:32;11.20;99.90
32322;DHT22;61553;48.994;8.940;2023-10-19T00:46:14;11.20;99.90
32322;DHT22;61553;48.994;8.940;2023-10-19T00:48:48;11.20;99.90
32322;DHT22;61553;48.994;8.940;2023-10-19T00:51:20;11.20;99.90
32322;DHT22;61553;48.994;8.940;2023-10-19T00:54:05;11.20;99.90
32322;DHT22;61553;48.994;8.940;2023-10-19T00:56:37;11.30;99.90
32322;DHT22;61553;48.994;8.940;2023-10-19T00:59:06;11.20;99.90
32322;DHT22;61553;48.994;8.940;2023-10-19T01:01:45;11.30;99.90
32322;DHT22;61553;48.994;8.940;2023-10-19T01:04:14;11.30;99.90
32322;DHT22;61553;48.994;8.940;2023-10-19T01:06:41;11.40;99.90
32322;DHT22;61553;48.994;8.940;2023-10-19T01:09:23;11.40;99.90
32322;DHT22;61553;48.994;8.940;2023-10-19T01:11:52;11.40;99.90
32322;DHT22;61553;48.994;8.940;2023-10-19T01:14:22;11.40;99.90
32322;DHT22;61553;48.994;8.940;2023-10-19T01:16:49;11.50;99.90
32322;DHT22;61553;48.994;8.940;2023-10-19T01:19:22;11.50;99.90
32322;DHT22;61553;48.994;8.940;2023-10-19T01:21:49;11.50;99.90
32322;DHT22;61553;48.994;8.940;2023-10-19T01:24:21;11.60;99.90
32322;DHT22;61553;48.994;8.940;2023-10-19T01:27:05;11.60;99.90
32322;DHT22;61553;48.994;8.940;2023-10-19T01:29:34;11.60;99.90
32322;DHT22;61553;48.994;8.940;2023-10-19T01:32:00;11.60;99.90
32322;DHT22;61553;48.994;8.940;2023-10-19T01:34:32;11.60;99.90
32322;DHT22;61553;48.994;8.940;2023-10-19T01:37:02;11.60;99.90
32322;DHT22;61553;48.994;8.940;2023-10-19T01:39:33;11.60;99.90
32322;DHT22;61553;48.994;8.940;2023-10-19T01:42:01;11.60;99.90
32322;DHT22;61553;48.994;8.940;2023-10-19T01:44:29;11.60;99.90
32322;DHT22;61553;48.994;8.940;2023-10-19T01:46:55;11.60;99.90
32322;DHT22;61553;48.994;8.940;2023-10-19T01:49:21;11.60;99.90
32322;DHT22;61553;48.994;8.940;2023-10-19T01:51:55;11.60;99.90
32322;DHT22;61553;48.994;8.940;2023-10-19T01:54:23;11.70;99.90
32322;DHT22;61553;48.994;8.940;2023-10-19T01:56:54;11.70;99.90
32322;DHT22;61553;48.994;8.940;2023-10-19T01:59:23;11.70;99.90
32322;DHT22;61553;48.994;8.940;2023-10-19T02:01:56;11.70;99.90
32322;DHT22;61553;48.994;8.940;2023-10-19T02:04:22;11.70;99.90
32322;DHT22;61553;48.994;8.940;2023-10-19T02:06:48;11.70;99.90
32322;DHT22;61553;48.994;8.940;2023-10-19T02:09:17;11.70;99.90
32322;DHT22;61553;48.994;8.940;2023-10-19T02:11:48;11.70;99.90
32322;DHT22;61553;48.994;8.940;2023-10-19T02:14:15;11.70;99.90
32322;DHT22;61553;48.994;8.940;2023-10-19T02:16:52;11.70;99.90
32322;DHT22;61553;48.994;8.940;2023-10-19T02:19:19;11.60;99.90
32322;DHT22;61553;48.994;8.940;2023-10-19T02:21:56;11.60;99.90
32322;DHT22;61553;48.994;8.940;2023-10-19T02:24:22;11.60;99.90
32322;DHT22;61553;48.994;8.940;2023-10-19T02:26:49;11.60;99.90
32322;DHT22;61553;48.994;8.940;2023-10-19T02:29:17;11.60;99.90
32322;DHT22;61553;48.994;8.940;2023-10-19T02:31:44;11.60;99.90
32322;DHT22;61553;48.994;8.940;2023-10-19T02:34:11;11.50;99.90
32322;DHT22;61553;48.994;8.940;2023-10-19T02:36:38;11.40;99.90
32322;DHT22;61553;48.994;8.940;2023-10-19T02:39:06;11.40;99.90
32322;DHT22;61553;48.994;8.940;2023-10-19T02:41:35;11.40;99.90
32322;DHT22;61553;48.994;8.940;2023-10-19T02:44:02;11.40;99.90
32322;DHT22;61553;48.994;8.940;2023-10-19T02:46:37;11.30;99.90
32322;DHT22;61553;48.994;8.940;2023-10-19T02:49:07;11.30;99.90
32322;DHT22;61553;48.994;8.940;2023-10-19T02:51:46;11.30;99.90
32322;DHT22;61553;48.994;8.940;2023-10-19T02:54:20;11.30;99.90
32322;DHT22;61553;48.994;8.940;2023-10-19T02:56:54;11.30;99.90
32322;DHT22;61553;48.994;8.940;2023-10-19T02:59:23;11.30;99.90
32322;DHT22;61553;48.994;8.940;2023-10-19T03:01:57;11.40;99.90
32322;DHT22;61553;48.994;8.940;2023-10-19T03:04:49;11.40;99.90
32322;DHT22;61553;48.994;8.940;2023-10-19T03:07:14;11.40;99.90
32322;DHT22;61553;48.994;8.940;2023-10-19T03:09:41;11.40;99.90
32322;DHT22;61553;48.994;8.940;2023-10-19T03:12:14;11.40;99.90
32322;DHT22;61553;48.994;8.940;2023-10-19T03:14:40;11.40;99.90
32322;DHT22;61553;48.994;8.940;2023-10-19T03:17:07;11.40;99.90
32322;DHT22;61553;48.994;8.940;2023-10-19T03:19:34;11.30;99.90
32322;DHT22;61553;48.994;8.940;2023-10-19T03:22:03;11.20;99.90
32322;DHT22;61553;48.994;8.940;2023-10-19T03:24:32;11.10;99.90
32322;DHT22;61553;48.994;8.940;2023-10-19T03:27:10;11.10;99.90
32322;DHT22;61553;48.994;8.940;2023-10-19T03:29:45;11.10;99.90
32322;DHT22;61553;48.994;8.940;2023-10-19T03:32:15;11.10;99.90
32322;DHT22;61553;48.994;8.940;2023-10-19T03:34:47;11.10;99.90
32322;DHT22;61553;48.994;8.940;2023-10-19T03:37:14;11.10;99.90
32322;DHT22;61553;48.994;8.940;2023-10-19T03:39:41;11.10;99.90
32322;DHT22;61553;48.994;8.940;2023-10-19T03:42:07;11.00;99.90
32322;DHT22;61553;48.994;8.940;2023-10-19T03:44:39;11.10;99.90
32322;DHT22;61553;48.994;8.940;2023-10-19T03:47:14;11.10;99.90
32322;DHT22;61553;48.994;8.940;2023-10-19T03:49:44;11.10;99.90
32322;DHT22;61553;48.994;8.940;2023-10-19T03:52:12;11.20;99.90
32322;DHT22;61553;48.994;8.940;2023-10-19T03:54:38;11.20;99.90
32322;DHT22;61553;48.994;8.940;2023-10-19T03:57:09;11.30;99.90
32322;DHT22;61553;48.994;8.940;2023-10-19T03:59:41;11.20;99.90
32322;DHT22;61553;48.994;8.940;2023-10-19T04:02:09;11.10;99.90
32322;DHT22;61553;48.994;8.940;2023-10-19T04:04:42;11.00;99.90
32322;DHT22;61553;48.994;8.940;2023-10-19T04:07:16;10.90;99.90
32322;DHT22;61553;48.994;8.940;2023-10-19T04:09:52;10.80;99.90
32322;DHT22;61553;48.994;8.940;2023-10-19T04:12:36;10.70;99.90
32322;DHT22;61553;48.994;8.940;2023-10-19T04:15:06;10.60;99.90
32322;DHT22;61553;48.994;8.940;2023-10-19T04:17:41;10.50;99.90
32322;DHT22;61553;48.994;8.940;2023-10-19T04:20:17;10.40;99.90
32322;DHT22;61553;48.994;8.940;2023-10-19T04:22:47;10.30;99.90
32322;DHT22;61553;48.994;8.940;2023-10-19T04:25:14;10.20;99.90
32322;DHT22;61553;48.994;8.940;2023-10-19T04:27:42;10.20;99.90
32322;DHT22;61553;48.994;8.940;2023-10-19T04:30:12;10.10;99.90
32322;DHT22;61553;48.994;8.940;2023-10-19T04:32:48;10.10;99.90
32322;DHT22;61553;48.994;8.940;2023-10-19T04:35:17;10.00;99.90
32322;DHT22;61553;48.994;8.940;2023-10-19T04:40:16;10.00;99.90
32322;DHT22;61553;48.994;8.940;2023-10-19T04:42:42;9.90;99.90
32322;DHT22;61553;48.994;8.940;2023-10-19T04:45:08;9.90;99.90
32322;DHT22;61553;48.994;8.940;2023-10-19T04:47:34;9.90;99.90
32322;DHT22;61553;48.994;8.940;2023-10-19T04:50:05;9.90;99.90
32322;DHT22;61553;48.994;8.940;2023-10-19T04:52:31;10.00;99.90
32322;DHT22;61553;48.994;8.940;2023-10-19T04:54:58;10.00;99.90
32322;DHT22;61553;48.994;8.940;2023-10-19T04:57:24;10.00;99.90
32322;DHT22;61553;48.994;8.940;2023-10-19T04:59:49;10.00;99.90
32322;DHT22;61553;48.994;8.940;2023-10-19T05:02:15;10.10;99.90
32322;DHT22;61553;48.994;8.940;2023-10-19T05:04:42;10.20;99.90
32322;DHT22;61553;48.994;8.940;2023-10-19T05:07:09;10.10;99.90
32322;DHT22;61553;48.994;8.940;2023-10-19T05:09:37;10.10;99.90
32322;DHT22;61553;48.994;8.940;2023-10-19T05:12:06;10.20;99.90
32322;DHT22;61553;48.994;8.940;2023-10-19T05:14:35;10.20;99.90
32322;DHT22;61553;48.994;8.940;2023-10-19T05:17:02;10.20;99.90
32322;DHT22;61553;48.994;8.940;2023-10-19T05:19:30;10.20;99.90
32322;DHT22;61553;48.994;8.940;2023-10-19T05:21:56;10.10;99.90
32322;DHT22;61553;48.994;8.940;2023-10-19T05:24:22;10.20;99.90
32322;DHT22;61553;48.994;8.940;2023-10-19T05:26:48;10.10;99.90
32322;DHT22;61553;48.994;8.940;2023-10-19T05:29:14;10.10;99.90
32322;DHT22;61553;48.994;8.940;2023-10-19T05:31:41;10.10;99.90
32322;DHT22;61553;48.994;8.940;2023-10-19T05:34:06;10.10;99.90
32322;DHT22;61553;48.994;8.940;2023-10-19T05:36:33;10.10;99.90
32322;DHT22;61553;48.994;8.940;2023-10-19T05:38:59;10.10;99.90
32322;DHT22;61553;48.994;8.940;2023-10-19T05:41:25;10.10;99.90
32322;DHT22;61553;48.994;8.940;2023-10-19T05:43:52;10.00;99.90
32322;DHT22;61553;48.994;8.940;2023-10-19T05:46:19;10.00;99.90
32322;DHT22;61553;48.994;8.940;2023-10-19T05:48:47;9.90;99.90
32322;DHT22;61553;48.994;8.940;2023-10-19T05:51:14;9.90;99.90
32322;DHT22;61553;48.994;8.940;2023-10-19T05:53:40;9.80;99.90
32322;DHT22;61553;48.994;8.940;2023-10-19T05:56:07;9.80;99.90
32322;DHT22;61553;48.994;8.940;2023-10-19T05:58:32;9.80;99.90
32322;DHT22;61553;48.994;8.940;2023-10-19T06:00:59;9.70;99.90
32322;DHT22;61553;48.994;8.940;2023-10-19T06:03:24;9.70;99.90
32322;DHT22;61553;48.994;8.940;2023-10-19T06:05:50;9.70;99.90
32322;DHT22;61553;48.994;8.940;2023-10-19T06:08:16;9.70;99.90
32322;DHT22;61553;48.994;8.940;2023-10-19T06:10:41;9.70;99.90
32322;DHT22;61553;48.994;8.940;2023-10-19T06:13:08;9.80;99.90
32322;DHT22;61553;48.994;8.940;2023-10-19T06:15:35;9.90;99.90
32322;DHT22;61553;48.994;8.940;2023-10-19T06:18:01;9.90;99.90
32322;DHT22;61553;48.994;8.940;2023-10-19T06:20:27;10.00;99.90
32322;DHT22;61553;48.994;8.940;2023-10-19T06:22:56;10.10;99.90
32322;DHT22;61553;48.994;8.940;2023-10-19T06:25:26;10.20;99.90
32322;DHT22;61553;48.994;8.940;2023-10-19T06:27:52;10.30;99.90
32322;DHT22;61553;48.994;8.940;2023-10-19T06:30:19;10.30;99.90
32322;DHT22;61553;48.994;8.940;2023-10-19T06:32:52;10.40;99.90
32322;DHT22;61553;48.994;8.940;2023-10-19T06:35:19;10.50;99.90
32322;DHT22;61553;48.994;8.940;2023-10-19T06:37:45;10.50;99.90
32322;DHT22;61553;48.994;8.940;2023-10-19T06:40:11;10.50;99.90
32322;DHT22;61553;48.994;8.940;2023-10-19T06:42:38;10.60;99.90
32322;DHT22;61553;48.994;8.940;2023-10-19T06:45:05;10.70;99.90
32322;DHT22;61553;48.994;8.940;2023-10-19T06:47:30;10.80;99.90
32322;DHT22;61553;48.994;8.940;2023-10-19T06:49:56;10.90;99.90
32322;DHT22;61553;48.994;8.940;2023-10-19T06:52:22;11.00;99.90
32322;DHT22;61553;48.994;8.940;2023-10-19T06:54:48;11.10;99.90
32322;DHT22;61553;48.994;8.940;2023-10-19T06:57:14;11.20;99.90
32322;DHT22;61553;48.994;8.940;2023-10-19T06:59:39;11.30;99.90
32322;DHT22;61553;48.994;8.940;2023-10-19T07:02:05;11.40;99.90
32322;DHT22;61553;48.994;8.940;2023-10-19T07:04:33;11.50;99.90
32322;DHT22;61553;48.994;8.940;2023-10-19T07:06:59;11.60;99.90
32322;DHT22;61553;48.994;8.940;2023-10-19T07:09:26;11.70;99.90
32322;DHT22;61553;48.994;8.940;2023-10-19T07:11:51;11.80;99.90
32322;DHT22;61553;48.994;8.940;2023-10-19T07:14:20;11.80;99.90
32322;DHT22;61553;48.994;8.940;2023-10-19T07:16:48;11.90;99.90
32322;DHT22;61553;48.994;8.940;2023-10-19T07:19:15;11.90;99.90
32322;DHT22;61553;48.994;8.940;2023-10-19T07:21:40;11.90;99.90
32322;DHT22;61553;48.994;8.940;2023-10-19T07:24:08;11.90;99.90
32322;DHT22;61553;48.994;8.940;2023-10-19T07:26:36;12.00;99.90
32322;DHT22;61553;48.994;8.940;2023-10-19T07:29:16;12.00;99.90
32322;DHT22;61553;48.994;8.940;2023-10-19T07:31:42;12.10;99.90
32322;DHT22;61553;48.994;8.940;2023-10-19T07:34:08;12.20;99.90
32322;DHT22;61553;48.994;8.940;2023-10-19T07:36:38;12.30;99.90
32322;DHT22;61553;48.994;8.940;2023-10-19T07:39:04;12.40;99.90
32322;DHT22;61553;48.994;8.940;2023-10-19T07:41:30;12.50;99.90
32322;DHT22;61553;48.994;8.940;2023-10-19T07:44:01;12.70;99.90
32322;DHT22;61553;48.994;8.940;2023-10-19T07:46:27;12.90;99.90
32322;DHT22;61553;48.994;8.940;2023-10-19T07:48:54;13.10;99.90
32322;DHT22;61553;48.994;8.940;2023-10-19T07:51:20;13.30;99.90
32322;DHT22;61553;48.994;8.940;2023-10-19T07:53:45;13.40;99.90
32322;DHT22;61553;48.994;8.940;2023-10-19T07:56:11;13.50;99.90
32322;DHT22;61553;48.994;8.940;2023-10-19T07:58:37;13.60;99.90
32322;DHT22;61553;48.994;8.940;2023-10-19T08:01:02;14.00;99.90
32322;DHT22;61553;48.994;8.940;2023-10-19T08:03:28;14.60;99.90
32322;DHT22;61553;48.994;8.940;2023-10-19T08:05:54;15.30;99.90
32322;DHT22;61553;48.994;8.940;2023-10-19T08:08:19;16.00;99.90
32322;DHT22;61553;48.994;8.940;2023-10-19T08:10:45;16.60;99.90
32322;DHT22;61553;48.994;8.940;2023-10-19T08:13:11;17.60;99.90
32322;DHT22;61553;48.994;8.940;2023-10-19T08:15:38;19.10;99.90
32322;DHT22;61553;48.994;8.940;2023-10-19T08:18:04;20.90;99.90
32322;DHT22;61553;48.994;8.940;2023-10-19T08:22:58;24.20;99.90
32322;DHT22;61553;48.994;8.940;2023-10-19T08:25:24;25.40;96.30
32322;DHT22;61553;48.994;8.940;2023-10-19T08:27:52;26.40;92.50
32322;DHT22;61553;48.994;8.940;2023-10-19T08:30:22;26.40;89.60
32322;DHT22;61553;48.994;8.940;2023-10-19T08:32:48;25.40;89.20
32322;DHT22;61553;48.994;8.940;2023-10-19T08:35:15;24.40;91.40
32322;DHT22;61553;48.994;8.940;2023-10-19T08:37:43;23.30;93.50
32322;DHT22;61553;48.994;8.940;2023-10-19T08:40:12;22.70;94.60
32322;DHT22;61553;48.994;8.940;2023-10-19T08:42:42;22.80;95.20
32322;DHT22;61553;48.994;8.940;2023-10-19T08:45:09;23.20;95.20
32322;DHT22;61553;48.994;8.940;2023-10-19T08:47:42;23.90;94.90
32322;DHT22;61553;48.994;8.940;2023-10-19T08:50:09;24.80;92.60
32322;DHT22;61553;48.994;8.940;2023-10-19T08:52:36;25.50;92.00
32322;DHT22;61553;48.994;8.940;2023-10-19T08:55:03;26.50;89.50
32322;DHT22;61553;48.994;8.940;2023-10-19T08:57:29;27.60;85.40
32322;DHT22;61553;48.994;8.940;2023-10-19T08:59:56;28.40;82.00
32322;DHT22;61553;48.994;8.940;2023-10-19T09:02:24;29.10;79.30
32322;DHT22;61553;48.994;8.940;2023-10-19T09:04:49;29.30;76.50
32322;DHT22;61553;48.994;8.940;2023-10-19T09:07:16;29.30;74.80
32322;DHT22;61553;48.994;8.940;2023-10-19T09:09:42;28.00;76.00
32322;DHT22;61553;48.994;8.940;2023-10-19T09:12:07;27.10;78.80
32322;DHT22;61553;48.994;8.940;2023-10-19T09:14:35;26.60;80.40
32322;DHT22;61553;48.994;8.940;2023-10-19T09:17:07;26.50;79.70
32322;DHT22;61553;48.994;8.940;2023-10-19T09:19:45;26.10;81.10
32322;DHT22;61553;48.994;8.940;2023-10-19T09:22:14;25.90;81.80
32322;DHT22;61553;48.994;8.940;2023-10-19T09:24:52;25.40;83.20
32322;DHT22;61553;48.994;8.940;2023-10-19T09:27:21;25.30;83.80
32322;DHT22;61553;48.994;8.940;2023-10-19T09:29:49;25.20;84.60
32322;DHT22;61553;48.994;8.940;2023-10-19T09:32:18;24.70;86.70
32322;DHT22;61553;48.994;8.940;2023-10-19T09:34:45;24.80;86.00
32322;DHT22;61553;48.994;8.940;2023-10-19T09:37:12;25.00;86.00
32322;DHT22;61553;48.994;8.940;2023-10-19T09:39:38;25.00;85.70
32322;DHT22;61553;48.994;8.940;2023-10-19T09:42:11;25.30;85.00
32322;DHT22;61553;48.994;8.940;2023-10-19T09:44:45;25.40;84.90
32322;DHT22;61553;48.994;8.940;2023-10-19T09:47:20;26.30;83.80
32322;DHT22;61553;48.994;8.940;2023-10-19T09:49:49;27.10;81.60
32322;DHT22;61553;48.994;8.940;2023-10-19T09:52:16;27.40;79.40
32322;DHT22;61553;48.994;8.940;2023-10-19T09:57:16;27.10;79.40
32322;DHT22;61553;48.994;8.940;2023-10-19T09:59:46;26.60;81.00
32322;DHT22;61553;48.994;8.940;2023-10-19T10:02:14;26.40;80.80
32322;DHT22;61553;48.994;8.940;2023-10-19T10:04:41;25.90;82.30
32322;DHT22;61553;48.994;8.940;2023-10-19T10:07:09;25.20;83.90
32322;DHT22;61553;48.994;8.940;2023-10-19T10:09:40;24.20;87.20
32322;DHT22;61553;48.994;8.940;2023-10-19T10:12:25;23.50;89.90
32322;DHT22;61553;48.994;8.940;2023-10-19T10:15:12;23.00;91.20
32322;DHT22;61553;48.994;8.940;2023-10-19T10:17:38;22.30;92.50
32322;DHT22;61553;48.994;8.940;2023-10-19T10:22:39;21.50;95.20
32322;DHT22;61553;48.994;8.940;2023-10-19T10:25:07;21.10;96.40
32322;DHT22;61553;48.994;8.940;2023-10-19T10:27:36;20.80;97.70
32322;DHT22;61553;48.994;8.940;2023-10-19T10:30:04;20.40;99.90
32322;DHT22;61553;48.994;8.940;2023-10-19T10:32:51;20.30;99.90
32322;DHT22;61553;48.994;8.940;2023-10-19T10:38:06;20.00;99.90
32322;DHT22;61553;48.994;8.940;2023-10-19T10:40:42;19.80;99.90
32322;DHT22;61553;48.994;8.940;2023-10-19T10:43:08;19.90;99.90
32322;DHT22;61553;48.994;8.940;2023-10-19T10:45:36;19.70;99.90
32322;DHT22;61553;48.994;8.940;2023-10-19T10:48:01;19.70;99.90
32322;DHT22;61553;48.994;8.940;2023-10-19T10:50:27;19.70;99.90
32322;DHT22;61553;48.994;8.940;2023-10-19T10:52:56;19.60;99.90
32322;DHT22;61553;48.994;8.940;2023-10-19T10:55:25;19.70;99.90
32322;DHT22;61553;48.994;8.940;2023-10-19T10:57:51;19.50;99.90
32322;DHT22;61553;48.994;8.940;2023-10-19T11:00:17;19.60;99.90
32322;DHT22;61553;48.994;8.940;2023-10-19T11:03:08;19.70;99.90
32322;DHT22;61553;48.994;8.940;2023-10-19T11:05:35;19.80;99.90
32322;DHT22;61553;48.994;8.940;2023-10-19T11:10:40;19.70;99.90
32322;DHT22;61553;48.994;8.940;2023-10-19T11:13:10;19.60;99.90
32322;DHT22;61553;48.994;8.940;2023-10-19T11:15:37;19.50;99.90
32322;DHT22;61553;48.994;8.940;2023-10-19T11:18:04;19.50;99.90
32322;DHT22;61553;48.994;8.940;2023-10-19T11:20:30;19.20;99.90
32322;DHT22;61553;48.994;8.940;2023-10-19T11:22:57;18.90;99.90
32322;DHT22;61553;48.994;8.940;2023-10-19T11:25:27;18.70;99.90
32322;DHT22;61553;48.994;8.940;2023-10-19T11:27:57;18.50;99.90
32322;DHT22;61553;48.994;8.940;2023-10-19T11:30:31;18.40;99.90
32322;DHT22;61553;48.994;8.940;2023-10-19T11:32:57;18.30;99.90
32322;DHT22;61553;48.994;8.940;2023-10-19T11:35:27;18.20;99.90
32322;DHT22;61553;48.994;8.940;2023-10-19T11:37:55;17.90;99.90
32322;DHT22;61553;48.994;8.940;2023-10-19T11:40:21;17.70;99.90
32322;DHT22;61553;48.994;8.940;2023-10-19T11:42:48;17.70;99.90
32322;DHT22;61553;48.994;8.940;2023-10-19T11:45:14;17.70;99.90
32322;DHT22;61553;48.994;8.940;2023-10-19T11:47:40;17.70;99.90
32322;DHT22;61553;48.994;8.940;2023-10-19T11:50:06;17.70;99.90
32322;DHT22;61553;48.994;8.940;2023-10-19T11:52:32;17.80;99.90
32322;DHT22;61553;48.994;8.940;2023-10-19T11:54:58;17.80;99.90
32322;DHT22;61553;48.994;8.940;2023-10-19T11:57:24;17.70;99.90
32322;DHT22;61553;48.994;8.940;2023-10-19T11:59:53;17.70;99.90
32322;DHT22;61553;48.994;8.940;2023-10-19T12:02:19;17.60;99.90
32322;DHT22;61553;48.994;8.940;2023-10-19T12:04:45;17.50;99.90
32322;DHT22;61553;48.994;8.940;2023-10-19T12:07:11;17.50;99.90
32322;DHT22;61553;48.994;8.940;2023-10-19T12:09:37;17.40;99.90
32322;DHT22;61553;48.994;8.940;2023-10-19T12:12:03;17.30;99.90
32322;DHT22;61553;48.994;8.940;2023-10-19T12:14:32;17.30;99.90
32322;DHT22;61553;48.994;8.940;2023-10-19T12:17:00;17.30;99.90
32322;DHT22;61553;48.994;8.940;2023-10-19T12:19:30;17.30;99.90
32322;DHT22;61553;48.994;8.940;2023-10-19T12:21:56;17.20;99.90
32322;DHT22;61553;48.994;8.940;2023-10-19T12:24:22;17.40;99.90
32322;DHT22;61553;48.994;8.940;2023-10-19T12:26:48;17.50;99.90
32322;DHT22;61553;48.994;8.940;2023-10-19T12:29:14;17.50;99.90
32322;DHT22;61553;48.994;8.940;2023-10-19T12:31:42;17.60;99.90
32322;DHT22;61553;48.994;8.940;2023-10-19T12:34:08;17.60;99.90
32322;DHT22;61553;48.994;8.940;2023-10-19T12:36:37;17.60;99.90
32322;DHT22;61553;48.994;8.940;2023-10-19T12:39:03;17.60;99.90
32322;DHT22;61553;48.994;8.940;2023-10-19T12:41:32;17.60;99.90
32322;DHT22;61553;48.994;8.940;2023-10-19T12:43:58;17.60;99.90
32322;DHT22;61553;48.994;8.940;2023-10-19T12:46:26;17.70;99.90
32322;DHT22;61553;48.994;8.940;2023-10-19T12:48:53;17.70;99.90
32322;DHT22;61553;48.994;8.940;2023-10-19T12:51:25;17.80;99.90
32322;DHT22;61553;48.994;8.940;2023-10-19T12:53:51;17.80;99.90
32322;DHT22;61553;48.994;8.940;2023-10-19T12:56:18;17.90;99.90
32322;DHT22;61553;48.994;8.940;2023-10-19T12:58:44;18.00;99.90
32322;DHT22;61553;48.994;8.940;2023-10-19T13:01:09;18.20;99.90
32322;DHT22;61553;48.994;8.940;2023-10-19T13:03:43;18.40;99.90
32322;DHT22;61553;48.994;8.940;2023-10-19T13:06:14;18.50;99.90
32322;DHT22;61553;48.994;8.940;2023-10-19T13:08:39;18.60;99.90
32322;DHT22;61553;48.994;8.940;2023-10-19T13:11:07;18.70;99.90
32322;DHT22;61553;48.994;8.940;2023-10-19T13:13:32;18.60;99.90
32322;DHT22;61553;48.994;8.940;2023-10-19T13:15:58;18.60;99.90
32322;DHT22;61553;48.994;8.940;2023-10-19T13:18:25;18.50;99.90
32322;DHT22;61553;48.994;8.940;2023-10-19T13:20:54;18.30;99.90
32322;DHT22;61553;48.994;8.940;2023-10-19T13:23:20;18.20;99.90
32322;DHT22;61553;48.994;8.940;2023-10-19T13:25:49;18.10;99.90
32322;DHT22;61553;48.994;8.940;2023-10-19T13:28:17;18.00;99.90
32322;DHT22;61553;48.994;8.940;2023-10-19T13:30:49;17.90;99.90
32322;DHT22;61553;48.994;8.940;2023-10-19T13:33:15;17.90;99.90
32322;DHT22;61553;48.994;8.940;2023-10-19T13:35:43;17.90;99.90
32322;DHT22;61553;48.994;8.940;2023-10-19T13:38:10;17.80;99.90
32322;DHT22;61553;48.994;8.940;2023-10-19T13:40:37;17.80;99.90
32322;DHT22;61553;48.994;8.940;2023-10-19T13:43:05;17.80;99.90
32322;DHT22;61553;48.994;8.940;2023-10-19T13:45:36;17.70;99.90
32322;DHT22;61553;48.994;8.940;2023-10-19T13:48:07;17.60;99.90
32322;DHT22;61553;48.994;8.940;2023-10-19T13:50:34;17.50;99.90
32322;DHT22;61553;48.994;8.940;2023-10-19T13:53:01;17.40;99.90
32322;DHT22;61553;48.994;8.940;2023-10-19T13:55:29;17.40;99.90
32322;DHT22;61553;48.994;8.940;2023-10-19T13:57:55;17.30;99.90
32322;DHT22;61553;48.994;8.940;2023-10-19T14:00:24;17.20;99.90
32322;DHT22;61553;48.994;8.940;2023-10-19T14:02:57;17.20;99.90
32322;DHT22;61553;48.994;8.940;2023-10-19T14:05:24;17.20;99.90
32322;DHT22;61553;48.994;8.940;2023-10-19T14:07:50;17.30;99.90
32322;DHT22;61553;48.994;8.940;2023-10-19T14:10:17;17.40;99.90
32322;DHT22;61553;48.994;8.940;2023-10-19T14:12:45;17.40;99.90
32322;DHT22;61553;48.994;8.940;2023-10-19T14:15:19;17.30;99.90
32322;DHT22;61553;48.994;8.940;2023-10-19T14:17:47;17.30;99.90
32322;DHT22;61553;48.994;8.940;2023-10-19T14:20:17;17.30;99.90
32322;DHT22;61553;48.994;8.940;2023-10-19T14:22:48;17.10;99.90
32322;DHT22;61553;48.994;8.940;2023-10-19T14:25:14;17.20;99.90
32322;DHT22;61553;48.994;8.940;2023-10-19T14:27:45;17.10;99.90
32322;DHT22;61553;48.994;8.940;2023-10-19T14:30:12;17.00;99.90
32322;DHT22;61553;48.994;8.940;2023-10-19T14:32:44;16.90;99.90
32322;DHT22;61553;48.994;8.940;2023-10-19T14:35:13;16.90;99.90
32322;DHT22;61553;48.994;8.940;2023-10-19T14:37:41;16.90;99.90
32322;DHT22;61553;48.994;8.940;2023-10-19T14:40:12;16.80;99.90
32322;DHT22;61553;48.994;8.940;2023-10-19T14:42:40;16.70;99.90
32322;DHT22;61553;48.994;8.940;2023-10-19T14:45:12;16.70;99.90
32322;DHT22;61553;48.994;8.940;2023-10-19T14:47:40;16.70;99.90
32322;DHT22;61553;48.994;8.940;2023-10-19T14:50:16;16.60;99.90
32322;DHT22;61553;48.994;8.940;2023-10-19T14:52:44;16.50;99.90
32322;DHT22;61553;48.994;8.940;2023-10-19T14:55:11;16.50;99.90
32322;DHT22;61553;48.994;8.940;2023-10-19T14:57:38;16.50;99.90
32322;DHT22;61553;48.994;8.940;2023-10-19T15:00:09;16.40;99.90
32322;DHT22;61553;48.994;8.940;2023-10-19T15:02:56;16.30;99.90
32322;DHT22;61553;48.994;8.940;2023-10-19T15:05:27;16.30;99.90
32322;DHT22;61553;48.994;8.940;2023-10-19T15:07:53;16.30;99.90
32322;DHT22;61553;48.994;8.940;2023-10-19T15:10:20;16.20;99.90
32322;DHT22;61553;48.994;8.940;2023-10-19T15:12:46;16.20;99.90
32322;DHT22;61553;48.994;8.940;2023-10-19T15:15:12;16.30;99.90
32322;DHT22;61553;48.994;8.940;2023-10-19T15:17:40;16.30;99.90
32322;DHT22;61553;48.994;8.940;2023-10-19T15:20:08;16.30;99.90
32322;DHT22;61553;48.994;8.940;2023-10-19T15:22:36;16.30;99.90
32322;DHT22;61553;48.994;8.940;2023-10-19T15:25:02;16.30;99.90
32322;DHT22;61553;48.994;8.940;2023-10-19T15:27:28;16.30;99.90
32322;DHT22;61553;48.994;8.940;2023-10-19T15:29:56;16.30;99.90
32322;DHT22;61553;48.994;8.940;2023-10-19T15:32:22;16.30;99.90
32322;DHT22;61553;48.994;8.940;2023-10-19T15:34:48;16.10;99.90
32322;DHT22;61553;48.994;8.940;2023-10-19T15:37:14;16.10;99.90
32322;DHT22;61553;48.994;8.940;2023-10-19T15:39:40;16.10;99.90
32322;DHT22;61553;48.994;8.940;2023-10-19T15:42:05;16.20;99.90
32322;DHT22;61553;48.994;8.940;2023-10-19T15:44:34;16.20;99.90
32322;DHT22;61553;48.994;8.940;2023-10-19T15:47:00;16.10;99.90
32322;DHT22;61553;48.994;8.940;2023-10-19T15:49:27;16.10;99.90
32322;DHT22;61553;48.994;8.940;2023-10-19T15:51:52;16.00;99.90
32322;DHT22;61553;48.994;8.940;2023-10-19T15:54:18;15.90;99.90
32322;DHT22;61553;48.994;8.940;2023-10-19T15:56:43;15.90;99.90